Time;durP1;ratioP1;P1;durP2;ratioP2;P2;SDS_P1;SDS_P2;PMS_P1;PMS_P2;Temp;Humidity;BMP_temperature;BMP_pressure;BME280_temperature;BME280_humidity;BME280_pressure;Samples;Min_cycle;Max_cycle;Signal;HPM_P1;HPM_P2
2022/11/12 00:00:45;;;;;;;10.07;6.10;;;;;;;;;;5012447;28;20589;-69
2022/11/12 00:03:30;;;;;;;10.20;6.73;;;;;;;;;;5008642;28;20325;-68
2022/11/12 00:06:15;;;;;;;12.57;6.50;;;;;;;;;;5019804;28;20606;-68
2022/11/12 00:09:01;;;;;;;9.87;6.97;;;;;;;;;;5009155;28;20202;-68
2022/11/12 00:11:46;;;;;;;12.30;6.90;;;;;;;;;;5013962;28;20221;-68
2022/11/12 00:14:31;;;;;;;12.47;6.67;;;;;;;;;;5028568;28;20193;-68
2022/11/12 00:17:37;;;;;;;11.20;6.77;;;;;;;;;;5019871;28;20199;-68
2022/11/12 00:20:23;;;;;;;11.33;7.17;;;;;;;;;;5027608;28;20214;-68
2022/11/12 00:23:07;;;;;;;11.87;7.23;;;;;;;;;;5024931;28;20284;-69
2022/11/12 00:26:02;;;;;;;10.60;7.30;;;;;;;;;;5013882;28;20238;-68
2022/11/12 00:28:47;;;;;;;10.87;6.90;;;;;;;;;;5010688;28;20559;-68
2022/11/12 00:31:33;;;;;;;9.67;6.70;;;;;;;;;;5028183;28;20218;-68
2022/11/12 00:34:36;;;;;;;10.80;7.23;;;;;;;;;;5015495;28;20194;-69
2022/11/12 00:37:22;;;;;;;10.27;6.93;;;;;;;;;;5008715;28;20206;-68
2022/11/12 00:40:07;;;;;;;12.33;7.03;;;;;;;;;;5021790;28;20207;-69
2022/11/12 00:42:52;;;;;;;12.13;7.50;;;;;;;;;;5018068;28;20210;-68
2022/11/12 00:45:37;;;;;;;12.50;6.80;;;;;;;;;;5024273;28;20779;-69
2022/11/12 00:48:22;;;;;;;11.13;6.43;;;;;;;;;;5009243;28;20289;-70
2022/11/12 00:51:07;;;;;;;11.17;7.43;;;;;;;;;;5014496;28;20416;-68
2022/11/12 00:53:52;;;;;;;12.17;7.33;;;;;;;;;;5027294;28;20312;-68
2022/11/12 00:56:37;;;;;;;14.40;7.70;;;;;;;;;;5010586;28;20270;-69
2022/11/12 00:59:22;;;;;;;11.47;7.03;;;;;;;;;;5014639;28;20284;-68
2022/11/12 01:02:07;;;;;;;12.07;7.50;;;;;;;;;;5025998;28;20198;-68
2022/11/12 01:04:53;;;;;;;8.73;5.97;;;;;;;;;;5027162;28;20222;-68
2022/11/12 01:07:38;;;;;;;10.20;6.83;;;;;;;;;;5022437;28;20214;-68
2022/11/12 01:10:23;;;;;;;12.20;6.90;;;;;;;;;;5008580;28;20968;-68
2022/11/12 01:13:08;;;;;;;9.50;5.80;;;;;;;;;;5027600;28;20206;-68
2022/11/12 01:15:54;;;;;;;8.77;6.53;;;;;;;;;;5025246;28;20226;-68
2022/11/12 01:18:39;;;;;;;8.77;6.27;;;;;;;;;;5012600;28;20258;-68
2022/11/12 01:21:25;;;;;;;11.90;7.00;;;;;;;;;;5021176;28;20665;-68
2022/11/12 01:24:11;;;;;;;10.17;6.60;;;;;;;;;;5030583;28;20329;-68
2022/11/12 01:26:56;;;;;;;11.50;8.03;;;;;;;;;;5019710;28;20195;-68
2022/11/12 01:29:41;;;;;;;12.00;6.43;;;;;;;;;;5013239;28;20852;-68
2022/11/12 01:32:26;;;;;;;14.50;7.70;;;;;;;;;;5027047;28;20215;-68
2022/11/12 01:35:12;;;;;;;11.03;6.33;;;;;;;;;;5011692;28;20729;-68
2022/11/12 01:37:57;;;;;;;11.50;5.93;;;;;;;;;;5012273;28;20202;-69
2022/11/12 01:40:42;;;;;;;8.80;6.43;;;;;;;;;;5028125;28;20606;-68
2022/11/12 01:43:27;;;;;;;9.93;7.20;;;;;;;;;;5025260;28;20567;-69
2022/11/12 01:46:19;;;;;;;11.47;7.27;;;;;;;;;;5026799;28;20223;-68
2022/11/12 01:49:04;;;;;;;14.30;7.07;;;;;;;;;;5019658;28;20207;-68
2022/11/12 01:51:50;;;;;;;13.30;7.67;;;;;;;;;;5022141;28;20365;-68
2022/11/12 01:54:35;;;;;;;12.40;7.23;;;;;;;;;;5018793;28;20285;-68
2022/11/12 01:57:27;;;;;;;11.80;6.87;;;;;;;;;;5013152;28;20215;-68
2022/11/12 02:00:18;;;;;;;12.67;6.63;;;;;;;;;;5030153;28;20206;-68
2022/11/12 02:03:06;;;;;;;13.30;6.70;;;;;;;;;;5019612;28;20203;-68
2022/11/12 02:05:54;;;;;;;7.50;5.20;;;;;;;;;;5030551;28;20226;-69
2022/11/12 02:08:39;;;;;;;9.77;6.90;;;;;;;;;;5029435;28;20202;-68
2022/11/12 02:11:24;;;;;;;10.53;6.60;;;;;;;;;;5016108;28;20218;-68
2022/11/12 02:14:09;;;;;;;12.43;6.77;;;;;;;;;;5031810;28;20329;-68
2022/11/12 02:16:54;;;;;;;12.20;7.23;;;;;;;;;;5024668;28;20214;-68
2022/11/12 02:19:39;;;;;;;10.80;6.60;;;;;;;;;;5015012;28;20226;-68
2022/11/12 02:22:24;;;;;;;15.07;7.57;;;;;;;;;;5031150;28;20202;-68
2022/11/12 02:25:11;;;;;;;11.70;6.40;;;;;;;;;;5022882;28;20235;-68
2022/11/12 02:27:56;;;;;;;11.77;6.73;;;;;;;;;;5015767;28;20198;-69
2022/11/12 02:30:45;;;;;;;13.40;6.57;;;;;;;;;;5028094;28;20961;-68
2022/11/12 02:33:30;;;;;;;12.47;6.67;;;;;;;;;;5018953;28;20701;-68
2022/11/12 02:36:15;;;;;;;11.90;6.57;;;;;;;;;;5038897;28;20203;-68
2022/11/12 02:39:00;;;;;;;10.87;6.27;;;;;;;;;;5023853;28;20743;-68
2022/11/12 02:41:46;;;;;;;9.37;5.87;;;;;;;;;;5010184;28;20207;-69
2022/11/12 02:44:31;;;;;;;11.87;6.47;;;;;;;;;;5023631;28;20678;-68
2022/11/12 02:47:16;;;;;;;11.90;6.30;;;;;;;;;;5030230;28;20322;-68
2022/11/12 02:50:01;;;;;;;10.93;6.13;;;;;;;;;;5029888;28;20206;-68
2022/11/12 02:52:46;;;;;;;11.67;6.10;;;;;;;;;;5013210;28;20254;-69
2022/11/12 02:55:31;;;;;;;9.57;5.63;;;;;;;;;;5009498;28;20270;-69
2022/11/12 02:58:17;;;;;;;9.90;5.20;;;;;;;;;;5009903;28;20257;-68
2022/11/12 03:01:03;;;;;;;10.40;6.17;;;;;;;;;;5010556;28;20211;-68
2022/11/12 03:03:48;;;;;;;10.83;5.77;;;;;;;;;;5013577;28;20326;-68
2022/11/12 03:06:33;;;;;;;10.07;5.87;;;;;;;;;;5019871;28;20247;-68
2022/11/12 03:09:19;;;;;;;10.03;6.17;;;;;;;;;;5010728;28;20329;-68
2022/11/12 03:12:04;;;;;;;12.13;5.37;;;;;;;;;;5009708;28;20210;-68
2022/11/12 03:14:50;;;;;;;11.77;6.00;;;;;;;;;;5019515;28;20326;-68
2022/11/12 03:17:35;;;;;;;9.70;5.53;;;;;;;;;;5030615;28;20209;-68
2022/11/12 03:20:20;;;;;;;10.73;5.87;;;;;;;;;;5030789;28;20206;-68
2022/11/12 03:23:06;;;;;;;10.93;5.73;;;;;;;;;;5029946;28;20333;-68
2022/11/12 03:25:51;;;;;;;10.67;4.63;;;;;;;;;;5029310;28;20230;-68
2022/11/12 03:28:37;;;;;;;13.20;5.70;;;;;;;;;;5029109;28;20193;-69
2022/11/12 03:31:23;;;;;;;10.20;5.70;;;;;;;;;;5030490;28;20198;-68
2022/11/12 03:34:09;;;;;;;12.77;6.07;;;;;;;;;;5020346;28;20203;-68
2022/11/12 03:36:54;;;;;;;11.43;5.10;;;;;;;;;;5009356;28;20191;-68
2022/11/12 03:39:40;;;;;;;11.80;6.00;;;;;;;;;;5014221;28;20234;-68
2022/11/12 03:42:24;;;;;;;11.83;5.90;;;;;;;;;;5029593;28;20206;-68
2022/11/12 03:45:09;;;;;;;16.33;6.37;;;;;;;;;;5028405;28;20230;-68
2022/11/12 03:47:54;;;;;;;9.63;5.67;;;;;;;;;;5012583;28;20689;-68
2022/11/12 03:50:39;;;;;;;12.57;6.30;;;;;;;;;;5018148;28;20610;-68
2022/11/12 03:53:25;;;;;;;15.07;6.00;;;;;;;;;;5028527;28;20230;-68
2022/11/12 03:56:10;;;;;;;10.63;5.50;;;;;;;;;;5027065;28;20194;-68
2022/11/12 03:58:55;;;;;;;9.67;5.37;;;;;;;;;;5027952;28;20550;-68
2022/11/12 04:01:40;;;;;;;8.30;5.67;;;;;;;;;;5023033;28;20199;-69
2022/11/12 04:08:34;;;;;;;12.73;5.77;;;;;;;;;;5009336;28;20207;-68
2022/11/12 04:10:35;;;;;;;10.80;5.30;;;;;;;;;;5018360;28;20229;-68
2022/11/12 04:13:26;;;;;;;9.27;4.67;;;;;;;;;;5028438;28;20198;-68
2022/11/12 04:22:20;;;;;;;10.80;5.77;;;;;;;;;;5009429;28;20310;-69
2022/11/12 04:28:09;;;;;;;14.23;5.57;;;;;;;;;;5021136;28;20663;-68
2022/11/12 04:30:54;;;;;;;11.87;5.70;;;;;;;;;;5027786;28;20233;-68
2022/11/12 04:33:39;;;;;;;10.60;5.83;;;;;;;;;;5015657;28;20290;-68
2022/11/12 04:36:24;;;;;;;12.07;4.73;;;;;;;;;;5012721;28;20235;-68
2022/11/12 04:39:09;;;;;;;8.27;5.23;;;;;;;;;;5012420;28;20314;-68
2022/11/12 04:44:59;;;;;;;9.13;5.50;;;;;;;;;;5009613;28;20729;-68
2022/11/12 04:47:45;;;;;;;11.30;5.17;;;;;;;;;;5012497;28;20278;-68
2022/11/12 04:52:03;;;;;;;11.90;5.10;;;;;;;;;;5028260;28;20193;-68
2022/11/12 04:54:08;;;;;;;16.33;4.60;;;;;;;;;;5012627;28;20250;-68
2022/11/12 04:56:53;;;;;;;12.27;4.20;;;;;;;;;;5029994;28;20206;-68
2022/11/12 04:59:38;;;;;;;7.60;4.40;;;;;;;;;;5031456;28;20206;-68
2022/11/12 05:02:23;;;;;;;8.93;4.60;;;;;;;;;;5013660;28;20203;-68
2022/11/12 05:05:08;;;;;;;12.90;4.70;;;;;;;;;;5013147;28;20203;-68
2022/11/12 05:07:54;;;;;;;11.70;5.17;;;;;;;;;;5013221;28;20207;-68
2022/11/12 05:10:39;;;;;;;7.47;4.47;;;;;;;;;;5012727;28;20242;-68
2022/11/12 05:13:27;;;;;;;10.90;4.07;;;;;;;;;;5017589;28;20207;-68
2022/11/12 05:16:12;;;;;;;9.77;4.40;;;;;;;;;;5016778;28;20555;-68
2022/11/12 05:18:57;;;;;;;10.87;4.40;;;;;;;;;;5029596;28;20206;-68
2022/11/12 05:24:46;;;;;;;11.17;4.90;;;;;;;;;;5012210;28;20236;-68
2022/11/12 05:27:31;;;;;;;9.37;4.47;;;;;;;;;;5022335;28;20230;-69
2022/11/12 05:30:16;;;;;;;10.87;4.73;;;;;;;;;;5026186;28;20285;-68
2022/11/12 05:33:01;;;;;;;8.23;4.77;;;;;;;;;;5014052;28;20431;-69
2022/11/12 05:35:46;;;;;;;9.90;5.27;;;;;;;;;;5010619;28;20935;-68
2022/11/12 05:38:32;;;;;;;12.77;4.97;;;;;;;;;;5011809;28;20195;-68
2022/11/12 05:41:16;;;;;;;8.93;4.80;;;;;;;;;;5024030;28;20200;-68
2022/11/12 05:44:04;;;;;;;11.97;4.83;;;;;;;;;;5011267;28;20214;-69
2022/11/12 05:46:49;;;;;;;7.63;4.83;;;;;;;;;;5010544;28;20238;-68
2022/11/12 05:49:34;;;;;;;9.70;4.40;;;;;;;;;;5011433;28;20200;-69
2022/11/12 05:52:19;;;;;;;9.17;4.93;;;;;;;;;;5026398;28;20210;-69
2022/11/12 05:55:05;;;;;;;11.03;5.30;;;;;;;;;;5014682;28;20216;-69
2022/11/12 05:58:08;;;;;;;8.63;4.67;;;;;;;;;;5016506;28;20261;-68
2022/11/12 06:00:53;;;;;;;10.87;4.90;;;;;;;;;;5014179;28;20215;-68
2022/11/12 06:03:38;;;;;;;11.97;5.30;;;;;;;;;;5022002;28;20299;-68
2022/11/12 06:06:23;;;;;;;13.30;5.10;;;;;;;;;;5021634;28;20218;-69
2022/11/12 06:09:08;;;;;;;8.53;4.33;;;;;;;;;;5030593;28;20245;-68
2022/11/12 06:11:53;;;;;;;8.57;4.70;;;;;;;;;;5025580;28;20199;-68
2022/11/12 06:14:38;;;;;;;7.63;4.10;;;;;;;;;;5012204;28;20738;-68
2022/11/12 06:17:23;;;;;;;9.23;4.03;;;;;;;;;;5026322;28;20199;-68
2022/11/12 06:20:08;;;;;;;10.83;3.73;;;;;;;;;;5011149;28;20206;-68
2022/11/12 06:22:53;;;;;;;5.70;3.50;;;;;;;;;;5027949;28;20203;-68
2022/11/12 06:25:39;;;;;;;4.97;3.20;;;;;;;;;;5030563;28;20341;-68
2022/11/12 06:28:24;;;;;;;8.20;3.90;;;;;;;;;;5020157;28;20273;-68
2022/11/12 06:31:10;;;;;;;8.50;3.77;;;;;;;;;;5044650;28;20202;-68
2022/11/12 06:33:55;;;;;;;7.83;3.27;;;;;;;;;;5041698;28;20945;-72
2022/11/12 06:37:00;;;;;;;6.77;3.50;;;;;;;;;;5028962;28;20257;-73
2022/11/12 06:39:46;;;;;;;6.30;3.07;;;;;;;;;;5023543;28;20673;-73
2022/11/12 06:42:32;;;;;;;9.77;3.17;;;;;;;;;;5021034;28;20203;-72
2022/11/12 06:45:17;;;;;;;6.00;2.63;;;;;;;;;;5012398;28;20222;-71
2022/11/12 06:48:03;;;;;;;6.07;3.17;;;;;;;;;;5017853;28;20690;-72
2022/11/12 06:50:48;;;;;;;9.30;3.07;;;;;;;;;;5018924;28;20686;-70
2022/11/12 06:53:34;;;;;;;9.63;3.47;;;;;;;;;;5007241;28;20282;-71
2022/11/12 06:56:19;;;;;;;6.43;3.60;;;;;;;;;;5016169;28;20198;-73
2022/11/12 06:59:04;;;;;;;4.87;2.70;;;;;;;;;;5018827;28;20274;-72
2022/11/12 07:01:51;;;;;;;8.20;3.33;;;;;;;;;;5008271;28;20346;-71
2022/11/12 07:04:37;;;;;;;5.00;2.47;;;;;;;;;;5007435;28;20198;-71
2022/11/12 07:07:22;;;;;;;3.73;2.30;;;;;;;;;;5022071;28;20238;-71
2022/11/12 07:10:08;;;;;;;3.57;2.70;;;;;;;;;;5017489;28;20206;-70
2022/11/12 07:12:53;;;;;;;7.20;2.57;;;;;;;;;;5001895;28;20745;-70
2022/11/12 07:15:39;;;;;;;8.17;3.40;;;;;;;;;;5019111;28;20567;-71
2022/11/12 07:18:25;;;;;;;6.80;2.90;;;;;;;;;;5017678;28;20289;-71
2022/11/12 07:21:12;;;;;;;5.43;2.53;;;;;;;;;;5014544;28;20207;-71
2022/11/12 07:23:58;;;;;;;8.73;3.67;;;;;;;;;;5014917;28;20685;-71
2022/11/12 07:26:43;;;;;;;6.53;2.60;;;;;;;;;;5015562;28;20230;-72
2022/11/12 07:29:31;;;;;;;4.93;2.40;;;;;;;;;;5017707;28;20214;-70
2022/11/12 07:32:32;;;;;;;5.83;2.63;;;;;;;;;;5010981;28;20227;-70
2022/11/12 07:35:22;;;;;;;7.33;2.87;;;;;;;;;;5017220;28;20788;-69
2022/11/12 07:38:08;;;;;;;5.17;3.10;;;;;;;;;;5009938;28;20623;-71
2022/11/12 07:41:06;;;;;;;6.90;2.37;;;;;;;;;;5014251;28;20219;-68
2022/11/12 07:43:52;;;;;;;8.23;4.27;;;;;;;;;;5012157;28;20203;-72
2022/11/12 07:46:37;;;;;;;8.43;2.70;;;;;;;;;;5013634;28;20328;-68
2022/11/12 07:49:23;;;;;;;6.13;3.20;;;;;;;;;;5017103;28;20214;-69
2022/11/12 07:52:09;;;;;;;6.10;2.60;;;;;;;;;;5013631;28;20195;-72
2022/11/12 07:54:54;;;;;;;5.07;2.63;;;;;;;;;;5003929;28;20202;-72
2022/11/12 07:57:41;;;;;;;8.37;2.73;;;;;;;;;;5016257;28;20201;-72
2022/11/12 08:00:26;;;;;;;7.67;3.00;;;;;;;;;;5024689;28;20207;-71
2022/11/12 08:03:12;;;;;;;8.40;4.30;;;;;;;;;;5008622;28;20285;-71
2022/11/12 08:06:01;;;;;;;9.50;2.90;;;;;;;;;;5010167;28;20195;-72
2022/11/12 08:08:46;;;;;;;8.33;3.40;;;;;;;;;;5006314;28;20280;-72
2022/11/12 08:11:32;;;;;;;7.37;3.00;;;;;;;;;;5022093;28;20225;-70
2022/11/12 08:14:17;;;;;;;9.53;2.53;;;;;;;;;;5019985;28;20319;-71
2022/11/12 08:17:03;;;;;;;10.37;2.90;;;;;;;;;;5007536;28;20694;-69
2022/11/12 08:19:48;;;;;;;8.87;3.07;;;;;;;;;;5010316;28;20206;-70
2022/11/12 08:22:33;;;;;;;5.13;2.53;;;;;;;;;;5015975;28;20866;-71
2022/11/12 08:25:18;;;;;;;7.87;3.40;;;;;;;;;;5019790;28;20198;-69
2022/11/12 08:28:04;;;;;;;9.23;4.00;;;;;;;;;;5017486;28;20254;-69
2022/11/12 08:30:49;;;;;;;11.63;6.03;;;;;;;;;;5026047;28;20575;-69
2022/11/12 08:33:35;;;;;;;7.67;3.50;;;;;;;;;;5023920;28;20206;-70
2022/11/12 08:36:20;;;;;;;10.13;3.47;;;;;;;;;;5010519;28;20199;-70
2022/11/12 08:39:05;;;;;;;9.20;3.40;;;;;;;;;;5020452;28;20958;-71
2022/11/12 08:41:50;;;;;;;8.17;3.53;;;;;;;;;;5016520;28;20249;-70
2022/11/12 08:44:36;;;;;;;10.20;3.80;;;;;;;;;;5018861;28;20696;-70
2022/11/12 08:47:21;;;;;;;7.87;3.60;;;;;;;;;;5008604;28;20281;-70
2022/11/12 08:50:07;;;;;;;7.07;3.17;;;;;;;;;;5009022;28;20278;-70
2022/11/12 08:52:52;;;;;;;9.37;3.90;;;;;;;;;;5008450;28;20231;-72
2022/11/12 08:55:37;;;;;;;6.97;3.13;;;;;;;;;;5018391;28;20221;-69
2022/11/12 08:58:23;;;;;;;6.97;3.17;;;;;;;;;;5025172;28;20285;-72
2022/11/12 09:01:09;;;;;;;8.07;3.80;;;;;;;;;;5021120;28;20199;-70
2022/11/12 09:03:55;;;;;;;11.53;4.20;;;;;;;;;;5010666;28;20230;-73
2022/11/12 09:06:41;;;;;;;8.20;3.60;;;;;;;;;;5012476;28;20313;-70
2022/11/12 09:09:27;;;;;;;7.83;3.60;;;;;;;;;;5019252;28;20206;-70
2022/11/12 09:12:17;;;;;;;10.87;4.90;;;;;;;;;;5008845;28;20710;-70
2022/11/12 09:15:04;;;;;;;8.17;4.07;;;;;;;;;;5010678;28;20207;-71
2022/11/12 09:18:12;;;;;;;14.33;5.00;;;;;;;;;;5012370;28;20705;-70
2022/11/12 09:20:58;;;;;;;9.23;4.30;;;;;;;;;;5003046;28;20207;-71
2022/11/12 09:23:43;;;;;;;7.30;3.90;;;;;;;;;;5008764;28;20567;-71
2022/11/12 09:26:30;;;;;;;6.63;3.93;;;;;;;;;;5017786;28;20369;-70
2022/11/12 09:29:15;;;;;;;11.27;4.87;;;;;;;;;;5007607;28;20614;-71
2022/11/12 09:32:00;;;;;;;9.20;3.97;;;;;;;;;;5018233;28;20254;-71
2022/11/12 09:34:46;;;;;;;9.00;4.50;;;;;;;;;;5018394;28;20206;-71
2022/11/12 09:37:31;;;;;;;9.20;4.37;;;;;;;;;;5022670;28;20329;-71
2022/11/12 09:40:17;;;;;;;9.43;4.57;;;;;;;;;;5015622;28;20198;-72
2022/11/12 09:43:08;;;;;;;9.43;4.20;;;;;;;;;;5022924;28;20281;-71
2022/11/12 09:45:55;;;;;;;8.80;4.20;;;;;;;;;;5014445;28;20760;-71
2022/11/12 09:49:20;;;;;;;14.57;4.93;;;;;;;;;;5024251;28;20217;-73
2022/11/12 09:52:09;;;;;;;8.53;4.23;;;;;;;;;;5006549;28;21076;-72
2022/11/12 09:54:58;;;;;;;12.17;4.80;;;;;;;;;;5020303;28;20222;-68
2022/11/12 09:57:44;;;;;;;10.80;4.77;;;;;;;;;;5014155;28;20207;-67
2022/11/12 10:00:29;;;;;;;8.60;4.93;;;;;;;;;;5022891;28;20830;-66
2022/11/12 10:03:24;;;;;;;10.37;4.73;;;;;;;;;;5009175;28;20226;-67
2022/11/12 10:06:19;;;;;;;9.47;4.33;;;;;;;;;;5012953;28;20329;-66
2022/11/12 10:09:10;;;;;;;12.67;5.00;;;;;;;;;;5013952;28;20213;-66
2022/11/12 10:12:32;;;;;;;12.57;5.57;;;;;;;;;;5006509;28;20211;-66
2022/11/12 10:18:53;;;;;;;10.97;6.07;;;;;;;;;;5012295;28;20214;-67
2022/11/12 10:21:45;;;;;;;11.17;5.57;;;;;;;;;;5003572;28;20226;-68
2022/11/12 10:24:34;;;;;;;12.87;5.53;;;;;;;;;;5016818;28;20278;-67
2022/11/12 10:27:19;;;;;;;9.63;4.97;;;;;;;;;;5018696;28;20582;-70
2022/11/12 10:30:05;;;;;;;12.13;6.70;;;;;;;;;;5013547;28;20218;-70
2022/11/12 10:32:50;;;;;;;10.30;5.13;;;;;;;;;;5011568;28;20212;-71
2022/11/12 10:35:36;;;;;;;10.87;5.30;;;;;;;;;;5019340;28;20233;-69
2022/11/12 10:38:24;;;;;;;12.53;5.30;;;;;;;;;;5021035;28;20882;-70
2022/11/12 10:41:18;;;;;;;12.00;5.30;;;;;;;;;;5020103;28;20207;-67
2022/11/12 10:44:24;;;;;;;12.97;6.20;;;;;;;;;;5005562;28;20190;-70
2022/11/12 10:47:21;;;;;;;14.73;5.90;;;;;;;;;;5012381;28;20231;-69
2022/11/12 10:50:24;;;;;;;13.33;5.60;;;;;;;;;;5013852;28;20576;-69
2022/11/12 10:53:10;;;;;;;11.50;5.20;;;;;;;;;;5003096;28;20602;-69
2022/11/12 10:55:59;;;;;;;11.80;5.47;;;;;;;;;;5011044;28;23518;-69
2022/11/12 10:58:45;;;;;;;13.53;5.90;;;;;;;;;;5021723;28;20860;-70
2022/11/12 11:01:30;;;;;;;14.67;6.00;;;;;;;;;;5011510;28;20226;-71
2022/11/12 11:04:20;;;;;;;14.63;6.87;;;;;;;;;;5012098;28;20289;-70
2022/11/12 11:07:06;;;;;;;12.03;6.37;;;;;;;;;;5009154;28;20288;-69
2022/11/12 11:09:52;;;;;;;13.27;5.90;;;;;;;;;;5022348;28;20202;-69
2022/11/12 11:12:37;;;;;;;12.80;5.73;;;;;;;;;;5022550;28;20248;-70
2022/11/12 11:15:23;;;;;;;12.97;5.83;;;;;;;;;;5009294;28;20280;-70
2022/11/12 11:18:11;;;;;;;15.60;6.10;;;;;;;;;;5015300;28;20329;-70
2022/11/12 11:20:57;;;;;;;12.57;6.13;;;;;;;;;;5009793;28;20202;-70
2022/11/12 11:23:47;;;;;;;15.27;6.77;;;;;;;;;;5013016;28;20304;-69
2022/11/12 11:26:38;;;;;;;13.63;6.13;;;;;;;;;;5009412;28;20215;-69
2022/11/12 11:29:23;;;;;;;13.93;6.73;;;;;;;;;;5035003;28;20401;-70
2022/11/12 11:32:27;;;;;;;13.70;6.97;;;;;;;;;;5019031;28;20207;-68
2022/11/12 11:35:21;;;;;;;15.03;6.53;;;;;;;;;;5015565;28;20234;-70
2022/11/12 11:38:10;;;;;;;15.93;6.87;;;;;;;;;;5015777;28;20565;-69
2022/11/12 11:40:55;;;;;;;17.10;7.30;;;;;;;;;;5022796;28;20203;-72
2022/11/12 11:43:44;;;;;;;12.53;6.57;;;;;;;;;;5008571;28;20222;-68
2022/11/12 11:46:58;;;;;;;12.23;6.90;;;;;;;;;;5009691;28;20329;-69
2022/11/12 11:49:50;;;;;;;16.87;7.07;;;;;;;;;;4987311;28;20614;-71
2022/11/12 11:52:57;;;;;;;14.77;7.17;;;;;;;;;;5006470;28;20215;-71
2022/11/12 11:55:43;;;;;;;13.53;6.97;;;;;;;;;;5010964;28;20308;-69
2022/11/12 11:58:37;;;;;;;19.20;8.00;;;;;;;;;;5013114;28;20242;-69
2022/11/12 12:01:41;;;;;;;18.93;8.10;;;;;;;;;;5009720;28;20346;-69
2022/11/12 12:04:26;;;;;;;13.33;7.27;;;;;;;;;;5008169;28;20288;-69
2022/11/12 12:07:15;;;;;;;19.07;8.27;;;;;;;;;;5014940;28;20230;-70
2022/11/12 12:10:23;;;;;;;15.70;7.77;;;;;;;;;;5007877;28;20748;-70
2022/11/12 12:13:33;;;;;;;15.17;8.37;;;;;;;;;;5013890;28;20595;-68
2022/11/12 12:16:36;;;;;;;20.67;7.90;;;;;;;;;;5008422;28;20209;-70
2022/11/12 12:19:43;;;;;;;14.93;7.40;;;;;;;;;;5014120;28;20282;-72
2022/11/12 12:22:34;;;;;;;18.90;8.80;;;;;;;;;;5002905;28;20365;-72
2022/11/12 12:25:27;;;;;;;15.57;7.73;;;;;;;;;;5013540;28;20329;-73
2022/11/12 12:28:26;;;;;;;16.77;8.23;;;;;;;;;;5012322;28;20814;-69
2022/11/12 12:31:15;;;;;;;19.37;8.83;;;;;;;;;;5011327;28;20552;-68
2022/11/12 12:34:01;;;;;;;12.70;7.97;;;;;;;;;;5017043;28;20207;-68
2022/11/12 12:36:49;;;;;;;17.97;9.23;;;;;;;;;;5008746;28;20304;-68
2022/11/12 12:39:36;;;;;;;17.23;8.63;;;;;;;;;;5012652;28;20602;-67
2022/11/12 12:42:25;;;;;;;14.80;7.60;;;;;;;;;;5017304;28;20283;-70
2022/11/12 12:45:41;;;;;;;20.20;9.03;;;;;;;;;;4997607;28;20256;-71
2022/11/12 12:48:28;;;;;;;20.73;7.77;;;;;;;;;;5001205;28;20793;-71
2022/11/12 12:51:13;;;;;;;20.47;8.43;;;;;;;;;;5014603;28;20345;-70
2022/11/12 12:53:59;;;;;;;46.57;12.27;;;;;;;;;;5011522;28;20243;-70
2022/11/12 12:56:45;;;;;;;15.27;8.23;;;;;;;;;;5018167;28;20994;-69
2022/11/12 12:59:30;;;;;;;16.80;8.60;;;;;;;;;;5011170;28;20734;-69
2022/11/12 13:02:22;;;;;;;18.17;8.30;;;;;;;;;;5019020;28;20244;-69
2022/11/12 13:05:28;;;;;;;17.87;8.50;;;;;;;;;;5003375;28;20211;-69
2022/11/12 13:08:17;;;;;;;14.20;8.80;;;;;;;;;;5020590;28;20219;-70
2022/11/12 13:11:02;;;;;;;17.57;8.73;;;;;;;;;;5023690;28;20556;-70
2022/11/12 13:13:48;;;;;;;15.07;8.33;;;;;;;;;;5013462;28;20262;-70
2022/11/12 13:16:49;;;;;;;15.07;8.50;;;;;;;;;;5028025;28;20202;-69
2022/11/12 13:19:45;;;;;;;15.73;8.10;;;;;;;;;;5017668;28;20244;-71
2022/11/12 13:22:37;;;;;;;13.70;8.30;;;;;;;;;;5005317;28;20279;-70
2022/11/12 13:25:29;;;;;;;11.80;7.60;;;;;;;;;;5011294;28;20207;-70
2022/11/12 13:28:15;;;;;;;16.60;8.77;;;;;;;;;;5016465;28;20744;-70
2022/11/12 13:31:00;;;;;;;21.17;9.40;;;;;;;;;;5016848;28;20357;-71
2022/11/12 13:33:46;;;;;;;13.57;8.20;;;;;;;;;;5022055;28;20689;-71
2022/11/12 13:36:31;;;;;;;15.03;7.27;;;;;;;;;;5015735;28;20222;-70
2022/11/12 13:39:17;;;;;;;16.13;8.23;;;;;;;;;;5026298;28;20198;-70
2022/11/12 13:45:18;;;;;;;10.90;7.23;;;;;;;;;;5019020;28;20207;-69
2022/11/12 13:48:22;;;;;;;12.93;7.53;;;;;;;;;;5021616;28;20326;-70
2022/11/12 13:51:19;;;;;;;11.80;7.40;;;;;;;;;;5016427;28;20207;-70
2022/11/12 13:54:22;;;;;;;13.10;7.10;;;;;;;;;;5011308;28;20289;-70
2022/11/12 13:57:23;;;;;;;13.13;7.27;;;;;;;;;;5013005;28;20245;-70
2022/11/12 14:00:20;;;;;;;12.80;7.33;;;;;;;;;;5016313;28;20215;-67
2022/11/12 14:03:06;;;;;;;15.20;7.40;;;;;;;;;;5009587;28;20199;-68
2022/11/12 14:05:52;;;;;;;13.30;7.50;;;;;;;;;;5011984;28;20721;-68
2022/11/12 14:08:59;;;;;;;11.87;7.10;;;;;;;;;;5011575;28;20287;-69
2022/11/12 14:11:44;;;;;;;14.00;8.37;;;;;;;;;;5017837;28;20674;-69
2022/11/12 14:15:07;;;;;;;15.03;6.90;;;;;;;;;;5026738;28;20199;-69
2022/11/12 14:17:56;;;;;;;12.00;7.10;;;;;;;;;;5024477;28;20236;-69
2022/11/12 14:20:42;;;;;;;13.70;7.20;;;;;;;;;;5015573;28;20207;-69
2022/11/12 14:23:27;;;;;;;13.50;7.23;;;;;;;;;;5010763;28;20307;-68
2022/11/12 14:26:12;;;;;;;13.00;7.17;;;;;;;;;;5028182;28;20550;-69
2022/11/12 14:28:58;;;;;;;11.67;6.63;;;;;;;;;;5016703;28;20226;-69
2022/11/12 14:31:43;;;;;;;15.87;7.87;;;;;;;;;;5024215;28;20203;-68
2022/11/12 14:34:32;;;;;;;13.63;7.63;;;;;;;;;;5013203;28;20203;-68
2022/11/12 14:37:32;;;;;;;17.67;8.50;;;;;;;;;;5021143;28;20338;-69
2022/11/12 14:40:24;;;;;;;12.37;7.60;;;;;;;;;;5027540;28;20241;-68
2022/11/12 14:43:28;;;;;;;12.17;8.30;;;;;;;;;;5001219;28;20343;-68
2022/11/12 14:46:31;;;;;;;14.63;8.47;;;;;;;;;;5027540;28;20310;-69
2022/11/12 14:49:18;;;;;;;17.67;9.77;;;;;;;;;;5022233;28;20223;-68
2022/11/12 14:52:22;;;;;;;13.20;8.97;;;;;;;;;;5026239;28;20198;-67
2022/11/12 14:55:12;;;;;;;14.37;8.90;;;;;;;;;;5011133;28;20210;-68
2022/11/12 14:57:58;;;;;;;17.57;9.40;;;;;;;;;;5009436;28;20257;-68
2022/11/12 15:00:45;;;;;;;18.63;9.97;;;;;;;;;;5014818;28;20206;-69
2022/11/12 15:03:30;;;;;;;17.90;10.30;;;;;;;;;;5018828;28;20203;-68
2022/11/12 15:06:36;;;;;;;14.73;9.67;;;;;;;;;;5020731;28;20207;-68
2022/11/12 15:09:34;;;;;;;14.83;10.57;;;;;;;;;;5019608;28;20226;-68
2022/11/12 15:12:24;;;;;;;17.33;10.30;;;;;;;;;;5029370;28;20531;-68
2022/11/12 15:15:16;;;;;;;16.80;9.63;;;;;;;;;;5017294;28;20194;-68
2022/11/12 15:18:10;;;;;;;16.93;11.30;;;;;;;;;;5025047;28;20544;-68
2022/11/12 15:21:08;;;;;;;17.37;10.40;;;;;;;;;;5024432;28;20258;-68
2022/11/12 15:24:06;;;;;;;19.73;10.73;;;;;;;;;;5005172;28;20285;-68
2022/11/12 15:26:52;;;;;;;26.93;12.37;;;;;;;;;;5009512;28;20334;-68
2022/11/12 15:29:37;;;;;;;25.27;13.07;;;;;;;;;;5014569;28;20235;-69
2022/11/12 15:32:23;;;;;;;23.00;12.07;;;;;;;;;;5020694;28;20200;-69
2022/11/12 15:35:23;;;;;;;19.10;11.27;;;;;;;;;;5017735;28;20310;-68
2022/11/12 15:38:12;;;;;;;20.23;12.23;;;;;;;;;;5016101;28;20253;-69
2022/11/12 15:40:58;;;;;;;22.67;11.53;;;;;;;;;;5016026;28;20318;-68
2022/11/12 15:43:44;;;;;;;104.60;56.07;;;;;;;;;;5029524;28;20253;-69
2022/11/12 15:46:30;;;;;;;25.77;14.63;;;;;;;;;;5022408;28;20211;-69
2022/11/12 15:49:15;;;;;;;21.20;13.03;;;;;;;;;;5012165;28;20218;-69
2022/11/12 15:52:00;;;;;;;21.73;11.40;;;;;;;;;;5017458;28;20949;-70
2022/11/12 15:54:45;;;;;;;19.07;11.47;;;;;;;;;;5017113;28;21087;-69
2022/11/12 15:57:31;;;;;;;20.47;11.63;;;;;;;;;;5015334;28;20681;-68
2022/11/12 16:00:20;;;;;;;22.00;12.63;;;;;;;;;;5023789;28;20190;-69
2022/11/12 16:03:15;;;;;;;25.60;11.53;;;;;;;;;;5014772;28;20564;-69
2022/11/12 16:06:01;;;;;;;19.67;11.60;;;;;;;;;;5015494;28;20206;-69
2022/11/12 16:09:03;;;;;;;19.23;11.60;;;;;;;;;;5011332;28;20214;-69
2022/11/12 16:11:49;;;;;;;19.67;11.37;;;;;;;;;;5017121;28;20206;-72
2022/11/12 16:14:34;;;;;;;22.40;13.77;;;;;;;;;;5030613;28;20214;-71
2022/11/12 16:17:21;;;;;;;20.43;12.10;;;;;;;;;;5015501;28;20281;-69
2022/11/12 16:20:12;;;;;;;25.73;16.70;;;;;;;;;;5013645;28;20210;-69
2022/11/12 16:22:58;;;;;;;16.93;11.80;;;;;;;;;;5017493;28;20198;-69
2022/11/12 16:25:43;;;;;;;18.27;11.73;;;;;;;;;;4992489;28;20227;-71
2022/11/12 16:28:29;;;;;;;23.63;11.90;;;;;;;;;;5020666;28;20238;-71
2022/11/12 16:31:15;;;;;;;21.07;11.87;;;;;;;;;;5010280;28;20192;-70
2022/11/12 16:34:00;;;;;;;19.97;12.10;;;;;;;;;;5022081;28;20191;-70
2022/11/12 16:36:45;;;;;;;22.33;12.37;;;;;;;;;;5015344;28;20721;-72
2022/11/12 16:39:31;;;;;;;20.53;11.83;;;;;;;;;;5030942;28;20198;-70
2022/11/12 16:42:17;;;;;;;24.57;12.47;;;;;;;;;;5014039;28;20400;-71
2022/11/12 16:45:03;;;;;;;29.20;16.23;;;;;;;;;;5022873;28;20254;-70
2022/11/12 16:48:18;;;;;;;35.00;21.67;;;;;;;;;;5019683;28;20230;-70
2022/11/12 16:51:04;;;;;;;24.33;14.43;;;;;;;;;;5027529;28;20741;-71
2022/11/12 16:53:50;;;;;;;23.07;13.83;;;;;;;;;;5018418;28;20239;-71
2022/11/12 16:56:35;;;;;;;34.23;20.47;;;;;;;;;;5015388;28;20571;-71
2022/11/12 16:59:20;;;;;;;27.53;17.73;;;;;;;;;;5037331;28;20241;-71
2022/11/12 17:02:09;;;;;;;27.20;18.17;;;;;;;;;;5022916;28;20261;-70
2022/11/12 17:05:13;;;;;;;26.53;16.40;;;;;;;;;;5027909;28;20665;-70